Time;durP1;ratioP1;P1;durP2;ratioP2;P2;SDS_P1;SDS_P2;PMS_P1;PMS_P2;Temp;Humidity;BMP_temperature;BMP_pressure;BME280_temperature;BME280_humidity;BME280_pressure;Samples;Min_cycle;Max_cycle;Signal;HPM_P1;HPM_P2
2023/05/19 00:02:24;;;;;;;12.75;6.70;;;;;;;14.79;83.17;101507.66;4972943;28;20456;-88
2023/05/19 00:04:50;;;;;;;13.68;6.82;;;;;;;14.70;83.74;101498.56;4957175;28;20074;-90
2023/05/19 00:07:18;;;;;;;9.02;6.05;;;;;;;14.70;83.25;101510.75;4956855;28;20034;-90
2023/05/19 00:09:43;;;;;;;11.55;6.53;;;;;;;14.68;83.20;101494.34;4957015;28;20027;-89
2023/05/19 00:12:10;;;;;;;9.52;5.57;;;;;;;14.60;83.58;101487.78;4956864;28;20090;-89
2023/05/19 00:14:35;;;;;;;11.20;5.75;;;;;;;14.65;83.01;101497.97;4973963;28;20027;-89
2023/05/19 00:17:01;;;;;;;11.23;5.68;;;;;;;14.63;82.83;101495.41;4972863;28;20022;-89
2023/05/19 00:19:30;;;;;;;11.48;5.72;;;;;;;14.48;83.14;101472.78;4972699;28;20033;-89
2023/05/19 00:21:57;;;;;;;10.20;6.32;;;;;;;14.61;82.67;101494.66;4941698;28;20567;-87
2023/05/19 00:24:22;;;;;;;9.95;5.78;;;;;;;14.55;83.25;101495.00;4972581;28;20034;-87
2023/05/19 00:26:47;;;;;;;15.98;5.97;;;;;;;14.60;82.59;101495.59;4972312;28;20081;-86
2023/05/19 00:29:17;;;;;;;11.57;6.35;;;;;;;14.59;82.82;101499.13;4956366;28;20034;-87
2023/05/19 00:31:42;;;;;;;9.60;5.57;;;;;;;14.38;82.97;101466.34;4973780;28;20029;-88
2023/05/19 00:34:08;;;;;;;9.45;5.13;;;;;;;14.60;82.49;101497.34;4956505;28;20023;-86
2023/05/19 00:36:33;;;;;;;8.45;4.90;;;;;;;14.52;82.57;101497.75;4972037;28;20418;-87
2023/05/19 00:38:59;;;;;;;9.23;4.85;;;;;;;14.51;82.57;101501.28;4972317;28;20034;-86
2023/05/19 00:41:25;;;;;;;10.55;5.82;;;;;;;14.53;82.93;101502.03;4972464;28;20031;-86
2023/05/19 00:43:50;;;;;;;9.18;5.10;;;;;;;14.41;82.67;101494.81;4973503;28;20038;-87
2023/05/19 00:46:16;;;;;;;17.25;5.63;;;;;;;14.19;83.28;101471.66;4972849;28;20034;-87
2023/05/19 00:48:44;;;;;;;9.45;6.13;;;;;;;14.40;83.66;101513.13;4972334;28;20030;-87
2023/05/19 00:51:13;;;;;;;9.45;5.90;;;;;;;14.33;82.92;101499.56;4956308;28;20077;-87
2023/05/19 00:53:38;;;;;;;13.10;5.20;;;;;;;14.32;83.27;101501.31;4972595;28;20031;-87
2023/05/19 00:56:04;;;;;;;11.75;5.60;;;;;;;14.07;83.54;101467.91;4956369;28;20033;-88
2023/05/19 00:58:31;;;;;;;10.25;5.85;;;;;;;14.28;83.49;101506.78;4971864;28;20035;-86
2023/05/19 01:01:05;;;;;;;11.05;4.75;;;;;;;14.21;83.85;101503.63;4971562;28;20037;-87
2023/05/19 01:03:31;;;;;;;14.57;6.20;;;;;;;14.20;83.59;101499.34;4956458;28;20054;-87
2023/05/19 01:06:00;;;;;;;8.38;4.55;;;;;;;14.13;83.58;101484.13;4939811;28;20108;-87
2023/05/19 01:11:10;;;;;;;7.82;4.85;;;;;;;14.14;83.95;101498.81;4958262;28;20045;-87
2023/05/19 01:13:35;;;;;;;9.88;5.75;;;;;;;14.01;84.33;101468.19;4955803;28;20039;-86
2023/05/19 01:16:24;;;;;;;9.90;5.13;;;;;;;14.16;84.03;101489.16;4955314;28;20030;-87
2023/05/19 01:19:04;;;;;;;8.57;4.93;;;;;;;14.15;84.22;101490.06;4970870;28;20142;-86
2023/05/19 01:21:51;;;;;;;10.15;5.05;;;;;;;14.08;84.47;101486.97;4972592;28;20074;-86
2023/05/19 01:24:29;;;;;;;12.82;6.20;;;;;;;14.05;84.12;101482.72;4972831;28;20026;-87
2023/05/19 01:27:06;;;;;;;11.57;6.43;;;;;;;14.03;84.72;101481.13;4971361;28;20565;-86
2023/05/19 01:29:51;;;;;;;9.57;5.65;;;;;;;14.03;84.72;101481.13;4972488;28;20026;-87
2023/05/19 01:32:17;;;;;;;8.18;5.50;;;;;;;13.96;84.41;101471.94;4956495;28;20428;-86
2023/05/19 01:34:45;;;;;;;10.75;5.45;;;;;;;13.94;84.60;101476.38;4955457;28;20085;-87
2023/05/19 01:37:12;;;;;;;10.63;5.90;;;;;;;13.97;84.53;101484.06;4955473;28;20030;-86
2023/05/19 01:39:37;;;;;;;9.30;5.30;;;;;;;14.02;84.38;101482.88;4955015;28;20133;-87
2023/05/19 01:42:03;;;;;;;10.65;5.03;;;;;;;13.95;84.09;101473.69;4971090;28;20046;-87
2023/05/19 01:44:28;;;;;;;11.02;5.60;;;;;;;14.01;84.10;101486.41;4971963;28;20026;-87
2023/05/19 01:46:54;;;;;;;11.02;5.22;;;;;;;13.96;84.38;101477.13;4954491;28;20026;-87
2023/05/19 01:49:19;;;;;;;9.73;4.95;;;;;;;13.97;84.15;101484.88;4971560;28;20050;-87
2023/05/19 01:51:45;;;;;;;17.75;5.10;;;;;;;14.01;84.09;101488.19;4955188;28;20035;-89
2023/05/19 01:54:10;;;;;;;9.60;5.75;;;;;;;13.99;84.09;101479.59;4939060;28;20034;-89
2023/05/19 01:56:59;;;;;;;6.47;4.90;;;;;;;13.98;84.46;101491.78;4954921;28;20034;-90
2023/05/19 02:00:04;;;;;;;12.55;6.43;;;;;;;13.91;84.38;101477.38;4971094;28;20580;-90
2023/05/19 02:02:41;;;;;;;9.85;5.10;;;;;;;13.86;84.63;101479.34;4977899;28;20039;-89
2023/05/19 02:05:11;;;;;;;8.60;5.20;;;;;;;13.94;84.30;101490.22;4971865;28;20106;-89
2023/05/19 02:07:42;;;;;;;11.48;5.55;;;;;;;13.98;84.21;101496.97;4955184;28;20033;-90
2023/05/19 02:10:13;;;;;;;10.02;5.22;;;;;;;14.03;83.82;101507.97;4955079;28;20037;-89
2023/05/19 02:12:39;;;;;;;9.10;5.53;;;;;;;14.04;83.68;101509.66;4938680;28;20118;-89
2023/05/19 02:15:05;;;;;;;9.93;5.60;;;;;;;14.06;83.35;101505.25;4954920;28;20488;-89
2023/05/19 02:17:32;;;;;;;11.30;5.97;;;;;;;14.09;83.25;101503.41;4970772;28;20038;-89
2023/05/19 02:19:57;;;;;;;7.80;5.43;;;;;;;13.99;83.47;101496.06;4954881;28;20058;-89
2023/05/19 02:22:23;;;;;;;9.80;5.47;;;;;;;13.97;83.62;101492.69;4954792;28;20065;-90
2023/05/19 02:24:50;;;;;;;9.35;5.80;;;;;;;14.02;83.15;101503.69;4971746;28;20035;-87
2023/05/19 02:27:16;;;;;;;9.20;6.22;;;;;;;13.95;82.79;101496.28;4970423;28;20501;-88
2023/05/19 02:29:41;;;;;;;8.75;5.00;;;;;;;13.98;83.09;101509.16;4954773;28;20035;-87
2023/05/19 02:32:06;;;;;;;13.45;5.63;;;;;;;13.91;83.44;101502.56;4970760;28;20023;-86
2023/05/19 02:34:32;;;;;;;7.65;4.88;;;;;;;13.96;83.48;101518.75;4970723;28;20034;-86
2023/05/19 02:36:58;;;;;;;14.40;5.68;;;;;;;13.96;83.80;101517.03;4970538;28;20034;-86
2023/05/19 02:39:23;;;;;;;8.48;4.88;;;;;;;13.99;83.28;101521.22;4970392;28;20105;-86
2023/05/19 02:41:48;;;;;;;12.90;4.20;;;;;;;13.90;84.04;101522.53;4954367;28;20444;-87
2023/05/19 02:44:14;;;;;;;9.57;4.75;;;;;;;13.76;83.63;101505.00;4970684;28;20039;-87
2023/05/19 02:46:39;;;;;;;8.60;4.70;;;;;;;13.83;83.82;101522.88;4970520;28;20454;-86
2023/05/19 02:49:05;;;;;;;7.68;4.32;;;;;;;13.81;83.79;101522.97;4954687;28;20027;-87
2023/05/19 02:51:30;;;;;;;8.43;5.40;;;;;;;13.87;83.68;101525.28;4970328;28;20575;-86
2023/05/19 02:53:56;;;;;;;8.38;4.85;;;;;;;13.89;83.07;101533.00;4971764;28;20026;-85
2023/05/19 02:56:21;;;;;;;8.50;5.00;;;;;;;13.82;83.57;101526.41;4953910;28;20037;-85
2023/05/19 02:58:47;;;;;;;8.27;5.15;;;;;;;13.91;83.41;101537.22;4970777;28;20030;-86
2023/05/19 03:01:12;;;;;;;9.45;4.43;;;;;;;13.78;83.01;101523.97;4974367;28;20038;-86
2023/05/19 03:03:38;;;;;;;9.80;5.88;;;;;;;13.60;83.61;101500.59;4975379;28;20030;-87
2023/05/19 03:06:03;;;;;;;7.82;4.90;;;;;;;13.86;83.47;101541.78;4974109;28;20041;-86
2023/05/19 03:08:29;;;;;;;11.25;5.32;;;;;;;13.86;83.50;101536.56;4958066;28;20562;-87
2023/05/19 03:10:55;;;;;;;11.20;5.13;;;;;;;13.89;83.52;101536.44;4957825;28;20477;-87
2023/05/19 03:13:20;;;;;;;9.80;5.20;;;;;;;13.91;83.14;101529.41;4973951;28;20023;-87
2023/05/19 03:15:46;;;;;;;10.85;5.43;;;;;;;13.97;82.80;101539.53;4957648;28;20050;-87
2023/05/19 03:18:11;;;;;;;10.73;5.20;;;;;;;13.88;82.44;101524.34;4941935;28;20037;-86
2023/05/19 03:20:37;;;;;;;9.95;5.13;;;;;;;13.83;82.67;101528.94;4973885;28;20419;-86
2023/05/19 03:23:02;;;;;;;15.15;6.00;;;;;;;13.97;82.47;101555.13;4958083;28;20038;-87
2023/05/19 03:25:28;;;;;;;9.05;5.53;;;;;;;13.90;82.73;101545.94;4973577;28;20030;-90
2023/05/19 03:27:54;;;;;;;9.32;5.03;;;;;;;13.84;83.94;101546.22;4960791;28;20498;-85
2023/05/19 03:30:19;;;;;;;8.55;5.07;;;;;;;13.77;83.58;101529.25;4976353;28;20125;-85
2023/05/19 03:32:45;;;;;;;8.68;5.07;;;;;;;13.83;83.23;101535.88;4992536;28;20034;-87
2023/05/19 03:35:10;;;;;;;9.73;5.82;;;;;;;13.76;82.96;101514.53;4976763;28;20487;-89
2023/05/19 03:37:36;;;;;;;8.10;5.38;;;;;;;13.87;83.02;101537.44;4993752;28;20142;-90
2023/05/19 03:40:02;;;;;;;10.35;5.10;;;;;;;13.89;83.07;101543.41;4993929;28;20054;-89
2023/05/19 03:42:27;;;;;;;21.40;6.30;;;;;;;13.96;83.44;101562.97;4976689;28;20560;-90
2023/05/19 03:44:53;;;;;;;8.52;5.32;;;;;;;13.91;83.71;101560.63;4977108;28;20022;-89
2023/05/19 03:47:18;;;;;;;8.48;4.80;;;;;;;13.94;83.17;101560.47;4993347;28;20472;-90
2023/05/19 03:49:44;;;;;;;8.40;5.63;;;;;;;14.00;83.50;101562.78;4993149;28;20523;-90
2023/05/19 03:52:11;;;;;;;10.32;5.40;;;;;;;14.05;83.70;101565.97;4993531;28;20022;-90
2023/05/19 03:54:38;;;;;;;9.43;5.43;;;;;;;14.12;83.37;101568.31;4993907;28;20026;-92
2023/05/19 03:57:04;;;;;;;7.88;4.95;;;;;;;14.09;82.35;101578.88;4997702;28;20026;-93
2023/05/19 03:59:30;;;;;;;13.32;5.97;;;;;;;14.10;82.29;101573.59;4978196;28;20034;-92
2023/05/19 04:01:56;;;;;;;8.88;5.00;;;;;;;14.06;82.43;101565.09;4994030;28;20041;-88
2023/05/19 04:04:22;;;;;;;9.80;5.93;;;;;;;14.03;82.55;101567.81;4993450;28;20419;-87
2023/05/19 04:06:47;;;;;;;9.93;6.05;;;;;;;14.11;83.00;101582.22;4988335;28;20487;-89
2023/05/19 04:09:13;;;;;;;10.57;6.20;;;;;;;14.17;82.83;101581.94;5012313;28;20407;-88
2023/05/19 04:11:39;;;;;;;8.57;4.90;;;;;;;14.19;82.74;101580.94;4982987;28;20026;-89
2023/05/19 04:14:05;;;;;;;11.35;5.75;;;;;;;14.11;82.36;101553.59;4991370;28;20030;-89
2023/05/19 04:16:31;;;;;;;12.40;6.45;;;;;;;14.25;82.12;101579.78;4991623;28;20030;-91
2023/05/19 04:18:57;;;;;;;11.20;6.07;;;;;;;13.98;82.42;101559.41;4974993;28;20492;-92
2023/05/19 04:21:22;;;;;;;11.13;6.57;;;;;;;13.99;82.63;101561.09;4995464;28;20034;-92
2023/05/19 04:23:48;;;;;;;9.75;6.75;;;;;;;14.17;82.86;101588.00;4992810;28;20491;-89
2023/05/19 04:26:18;;;;;;;10.68;6.63;;;;;;;14.21;82.78;101583.47;4976324;28;20089;-96
2023/05/19 04:28:43;;;;;;;9.05;6.38;;;;;;;14.30;82.72;101586.47;4995524;28;20077;-93
2023/05/19 04:31:11;;;;;;;7.78;5.03;;;;;;;14.21;82.31;101557.44;4995179;28;20443;-86
2023/05/19 04:33:37;;;;;;;9.63;5.63;;;;;;;14.40;82.09;101588.63;4995493;28;20508;-93
2023/05/19 04:36:07;;;;;;;11.23;6.05;;;;;;;14.42;82.11;101565.94;4994974;28;20034;-90
2023/05/19 04:38:33;;;;;;;18.60;7.25;;;;;;;14.35;82.11;101566.28;4994217;28;20125;-94
2023/05/19 04:41:00;;;;;;;11.05;6.20;;;;;;;14.25;82.35;101558.97;4994520;28;20046;-86
2023/05/19 04:43:27;;;;;;;14.10;6.97;;;;;;;14.44;82.23;101579.72;4954539;28;20051;-88
2023/05/19 04:45:52;;;;;;;11.65;6.32;;;;;;;14.54;82.03;101594.84;4975191;28;20033;-84
2023/05/19 04:48:20;;;;;;;11.95;6.15;;;;;;;14.54;82.16;101580.97;4971991;28;20019;-85
2023/05/19 04:50:47;;;;;;;11.20;6.38;;;;;;;14.57;82.11;101583.44;4956115;28;20062;-86
2023/05/19 04:53:13;;;;;;;10.05;5.57;;;;;;;14.59;82.39;101582.44;4972629;28;20504;-90
2023/05/19 04:55:39;;;;;;;9.48;5.95;;;;;;;14.81;83.85;101599.59;4975336;28;20042;-87
2023/05/19 04:58:05;;;;;;;12.98;7.57;;;;;;;15.03;82.03;101552.41;4962411;28;20415;-91
2023/05/19 05:00:30;;;;;;;10.25;6.43;;;;;;;15.13;80.41;101580.50;4994187;28;20038;-92
2023/05/19 05:02:56;;;;;;;21.60;10.60;;;;;;;14.95;80.93;101588.47;4973630;28;20092;-91
2023/05/19 05:05:22;;;;;;;10.88;6.10;;;;;;;14.94;81.45;101600.63;4971892;28;20034;-91
2023/05/19 05:07:52;;;;;;;11.85;6.75;;;;;;;14.97;81.40;101597.03;4954277;28;20045;-94
2023/05/19 05:10:18;;;;;;;9.90;5.55;;;;;;;14.95;81.28;101594.53;4941760;28;20041;-89
2023/05/19 05:12:44;;;;;;;10.88;5.57;;;;;;;14.90;81.07;101588.69;4967491;28;20035;-90
2023/05/19 05:15:10;;;;;;;8.70;5.18;;;;;;;14.88;81.98;101572.31;4952906;28;20390;-86
2023/05/19 05:17:36;;;;;;;11.25;5.95;;;;;;;15.03;81.79;101594.09;4954734;28;20484;-91
2023/05/19 05:20:05;;;;;;;12.60;6.53;;;;;;;14.84;81.87;101555.13;4945674;28;20159;-92
2023/05/19 05:22:31;;;;;;;8.43;5.32;;;;;;;15.13;81.10;101593.53;4970028;28;20088;-90
2023/05/19 05:24:56;;;;;;;10.10;5.53;;;;;;;15.11;81.28;101592.78;4974106;28;20030;-91
2023/05/19 05:27:22;;;;;;;9.55;5.43;;;;;;;15.19;81.68;101605.41;4973630;28;20037;-94
2023/05/19 05:29:47;;;;;;;9.82;5.20;;;;;;;15.29;81.23;101603.16;4961485;28;20041;-95
2023/05/19 05:32:15;;;;;;;12.98;6.72;;;;;;;15.24;80.75;101576.47;4948168;28;20035;-88
2023/05/19 05:34:41;;;;;;;11.15;6.22;;;;;;;15.44;80.36;101616.25;4948002;28;20058;-91
2023/05/19 05:37:06;;;;;;;8.95;5.20;;;;;;;15.50;79.93;101609.84;4973167;28;20027;-86
2023/05/19 05:39:32;;;;;;;11.68;6.28;;;;;;;15.50;79.83;101613.28;4958319;28;20047;-94
2023/05/19 05:41:58;;;;;;;9.80;6.20;;;;;;;15.54;79.82;101616.59;4954933;28;20129;-93
2023/05/19 05:44:23;;;;;;;10.50;6.45;;;;;;;15.54;79.49;101610.53;4960396;28;20057;-88
2023/05/19 05:46:49;;;;;;;8.45;5.32;;;;;;;15.46;79.77;101596.13;4977455;28;20031;-94
2023/05/19 05:49:14;;;;;;;11.07;6.55;;;;;;;16.24;79.74;101623.16;4972562;28;20073;-93
2023/05/19 05:51:40;;;;;;;9.95;6.05;;;;;;;16.24;78.42;101612.72;4972483;23;20421;-89
2023/05/19 05:54:06;;;;;;;10.63;5.60;;;;;;;16.23;77.16;101608.41;4973122;28;20027;-88
2023/05/19 05:56:32;;;;;;;11.00;7.88;;;;;;;16.26;78.06;101605.63;4952200;29;20082;-89
2023/05/19 05:58:58;;;;;;;10.73;6.45;;;;;;;16.42;77.14;101610.81;4956069;28;20027;-92
2023/05/19 06:01:24;;;;;;;9.25;5.40;;;;;;;16.44;76.78;101616.78;4956845;28;20041;-91
2023/05/19 06:03:49;;;;;;;12.02;5.97;;;;;;;16.50;78.25;101623.41;4963380;28;20058;-87
2023/05/19 06:06:15;;;;;;;11.02;6.00;;;;;;;16.54;76.11;101614.47;4971220;28;20031;-90
2023/05/19 06:08:40;;;;;;;11.70;5.78;;;;;;;16.54;75.65;101620.53;4971097;28;20035;-89
2023/05/19 06:11:07;;;;;;;11.38;5.50;;;;;;;16.55;75.33;101608.31;5043197;23;20057;-93
2023/05/19 06:13:34;;;;;;;12.65;6.57;;;;;;;16.70;75.95;101625.72;4995021;28;20030;-89
2023/05/19 06:16:00;;;;;;;13.65;6.07;;;;;;;16.80;78.28;101626.03;4995428;28;20053;-93
2023/05/19 06:18:26;;;;;;;19.73;8.25;;;;;;;16.86;74.69;101626.53;4953417;28;20070;-91
2023/05/19 06:20:52;;;;;;;15.10;6.70;;;;;;;17.03;75.23;101637.75;4969809;28;20040;-92
2023/05/19 06:23:17;;;;;;;14.02;6.68;;;;;;;17.12;74.28;101629.38;4957528;28;20443;-90
2023/05/19 06:25:43;;;;;;;8.30;5.57;;;;;;;17.18;74.35;101626.34;4963593;28;20049;-93
2023/05/19 06:28:08;;;;;;;8.40;5.03;;;;;;;17.19;74.71;101633.25;4976028;28;20038;-90
2023/05/19 06:30:35;;;;;;;10.35;5.13;;;;;;;17.31;73.56;101631.69;4994198;28;20045;-89
2023/05/19 06:33:01;;;;;;;11.10;6.55;;;;;;;17.33;74.59;101633.28;4974935;28;20034;-94
2023/05/19 06:35:27;;;;;;;15.15;6.32;;;;;;;17.36;73.19;101640.94;4983223;28;20041;-84
2023/05/19 06:37:54;;;;;;;11.13;6.38;;;;;;;17.46;73.47;101626.34;4985051;28;20035;-88
2023/05/19 06:40:20;;;;;;;10.27;6.18;;;;;;;17.74;72.99;101643.81;4977757;28;20026;-89
2023/05/19 06:42:45;;;;;;;14.45;5.40;;;;;;;17.92;72.78;101656.69;4966885;28;20192;-88
2023/05/19 06:45:10;;;;;;;11.23;5.15;;;;;;;17.99;72.29;101650.09;4977443;28;20030;-88
2023/05/19 06:47:36;;;;;;;10.82;5.53;;;;;;;18.11;71.71;101648.50;4995772;28;20522;-92
2023/05/19 06:50:02;;;;;;;8.98;5.20;;;;;;;18.26;71.23;101650.13;5008711;28;20088;-94
2023/05/19 06:52:28;;;;;;;17.88;9.57;;;;;;;18.36;69.29;101656.44;5002005;28;20033;-91
2023/05/19 06:54:53;;;;;;;8.73;5.68;;;;;;;18.35;68.65;101652.16;5013863;28;20034;-86
2023/05/19 06:57:19;;;;;;;10.02;5.57;;;;;;;18.46;69.37;101647.03;5008004;28;20080;-85
2023/05/19 06:59:45;;;;;;;14.25;4.60;;;;;;;18.55;67.52;101654.28;4987266;28;20041;-88
2023/05/19 07:02:10;;;;;;;8.52;4.88;;;;;;;18.68;66.81;101656.13;5008261;28;20065;-89
2023/05/19 07:04:36;;;;;;;7.15;4.80;;;;;;;18.75;66.64;101654.78;5013176;28;20090;-92
2023/05/19 07:07:01;;;;;;;7.63;4.68;;;;;;;18.82;66.72;101667.38;4999811;28;20061;-90
2023/05/19 07:09:27;;;;;;;11.98;5.75;;;;;;;18.92;67.16;101657.13;5005954;28;20110;-89
2023/05/19 07:11:52;;;;;;;8.18;5.00;;;;;;;19.10;66.79;101666.38;5004278;28;20474;-91
2023/05/19 07:14:19;;;;;;;7.57;4.70;;;;;;;19.17;64.23;101667.63;4998008;28;20030;-90
2023/05/19 07:16:45;;;;;;;7.63;5.00;;;;;;;19.28;63.60;101668.69;4996030;28;20030;-92
2023/05/19 07:19:10;;;;;;;7.13;4.45;;;;;;;19.38;63.90;101659.22;5006811;28;20088;-93
2023/05/19 07:21:36;;;;;;;8.40;4.53;;;;;;;19.37;62.55;101652.25;4998480;28;20061;-93
2023/05/19 07:24:01;;;;;;;8.00;5.25;;;;;;;19.60;63.97;101661.22;5002654;28;20080;-89
2023/05/19 07:26:27;;;;;;;8.68;5.30;;;;;;;19.72;63.15;101655.91;4966578;28;20034;-87
2023/05/19 07:28:53;;;;;;;14.68;5.97;;;;;;;19.85;61.42;101628.78;4989648;28;20038;-88
2023/05/19 07:31:18;;;;;;;8.05;5.25;;;;;;;20.14;60.46;101652.94;5012462;28;20038;-93
2023/05/19 07:33:44;;;;;;;8.10;5.45;;;;;;;20.18;58.50;101655.25;5002025;28;20033;-92
2023/05/19 07:36:09;;;;;;;12.85;6.00;;;;;;;20.20;58.75;101642.81;4990095;28;20463;-91
2023/05/19 07:38:35;;;;;;;8.20;5.47;;;;;;;20.30;56.38;101637.72;4998218;28;20035;-87
2023/05/19 07:41:01;;;;;;;8.98;5.97;;;;;;;20.38;57.63;101634.53;4981884;28;20513;-86
2023/05/19 07:43:26;;;;;;;12.40;5.90;;;;;;;20.49;58.29;101635.44;4973847;28;20050;-90
2023/05/19 07:45:52;;;;;;;10.35;6.97;;;;;;;20.49;59.49;101632.81;4987927;28;20030;-94
2023/05/19 07:48:21;;;;;;;8.40;5.13;;;;;;;20.62;57.87;101636.19;4969462;28;20046;-90
2023/05/19 07:50:47;;;;;;;9.15;5.82;;;;;;;20.60;58.48;101637.28;5019032;28;20436;-91
2023/05/19 07:53:12;;;;;;;12.60;5.90;;;;;;;20.62;59.19;101619.59;4997450;28;20029;-84
2023/05/19 07:55:38;;;;;;;13.43;6.43;;;;;;;20.87;59.80;101635.19;5010285;28;20536;-92
2023/05/19 07:58:03;;;;;;;13.02;6.70;;;;;;;20.94;55.66;101634.69;4980635;28;20021;-89
2023/05/19 08:00:29;;;;;;;11.48;4.88;;;;;;;21.03;58.44;101636.63;5011710;28;20510;-94
2023/05/19 08:02:55;;;;;;;10.45;6.72;;;;;;;21.11;55.51;101634.25;5012968;28;20030;-88
2023/05/19 08:05:21;;;;;;;11.55;6.30;;;;;;;21.16;54.70;101637.38;4992766;28;20030;-89
2023/05/19 08:07:47;;;;;;;9.45;6.00;;;;;;;21.11;54.41;101639.50;4984461;28;20439;-91
2023/05/19 08:10:12;;;;;;;15.65;7.13;;;;;;;21.29;55.44;101646.00;5012703;28;20053;-88
2023/05/19 08:12:37;;;;;;;11.88;6.45;;;;;;;21.43;55.04;101635.25;4978124;28;20116;-90
2023/05/19 08:15:03;;;;;;;9.98;5.95;;;;;;;21.65;52.92;101638.81;5015587;28;20033;-94
2023/05/19 08:17:29;;;;;;;11.90;6.90;;;;;;;21.69;53.01;101641.06;4978339;28;20026;-91
2023/05/19 08:19:54;;;;;;;11.15;6.30;;;;;;;21.79;52.95;101643.81;4994288;28;20030;-89
2023/05/19 08:22:20;;;;;;;10.57;5.38;;;;;;;21.90;53.07;101649.03;4978913;28;20385;-89
2023/05/19 08:24:48;;;;;;;11.45;6.25;;;;;;;22.01;55.32;101649.00;5011220;28;20030;-93
2023/05/19 08:27:15;;;;;;;8.25;5.65;;;;;;;22.18;51.52;101652.13;5002403;28;20121;-95
2023/05/19 08:29:41;;;;;;;12.32;8.27;;;;;;;22.33;52.48;101651.72;5001407;28;20026;-88
2023/05/19 08:32:07;;;;;;;9.68;5.90;;;;;;;22.35;51.01;101648.94;4981117;28;20438;-91
2023/05/19 08:34:32;;;;;;;8.90;5.88;;;;;;;22.48;51.35;101648.75;4995257;28;20080;-90
2023/05/19 08:37:01;;;;;;;9.93;5.80;;;;;;;22.62;50.51;101635.28;5061266;23;20064;-87
2023/05/19 08:39:27;;;;;;;7.88;5.47;;;;;;;22.71;49.35;101647.66;5010734;28;20030;-82
2023/05/19 08:41:53;;;;;;;11.00;6.75;;;;;;;22.78;50.76;101650.63;4991141;28;20106;-87
2023/05/19 08:44:18;;;;;;;10.63;6.50;;;;;;;22.78;50.88;101650.63;4973935;28;20051;-92
2023/05/19 08:46:44;;;;;;;13.85;7.97;;;;;;;23.00;49.95;101647.88;4987428;28;20027;-88
2023/05/19 08:49:13;;;;;;;9.55;6.28;;;;;;;23.21;49.82;101649.66;5001711;28;20034;-91
2023/05/19 08:51:41;;;;;;;8.02;5.55;;;;;;;23.34;49.79;101651.09;4990169;28;20757;-88
2023/05/19 08:54:14;;;;;;;8.73;5.72;;;;;;;23.39;48.66;101648.03;4990075;28;20041;-90
2023/05/19 08:56:41;;;;;;;10.05;6.00;;;;;;;23.51;48.35;101638.25;4979222;28;20077;-87
2023/05/19 08:59:07;;;;;;;7.93;5.95;;;;;;;23.55;46.61;101632.53;4971595;28;20045;-90
2023/05/19 09:01:32;;;;;;;9.35;5.65;;;;;;;23.77;47.35;101638.59;4995196;28;20389;-88
2023/05/19 09:03:58;;;;;;;11.50;5.60;;;;;;;23.98;45.71;101648.06;4990119;28;20026;-91
2023/05/19 09:06:23;;;;;;;7.15;5.13;;;;;;;24.05;43.14;101635.16;4973594;28;20038;-94
2023/05/19 09:08:49;;;;;;;9.77;6.32;;;;;;;24.01;44.21;101608.19;4974745;28;20037;-87
2023/05/19 09:11:14;;;;;;;7.28;5.47;;;;;;;24.26;42.23;101630.56;4991916;28;20031;-92
2023/05/19 09:13:40;;;;;;;8.32;5.63;;;;;;;24.01;40.97;101599.41;4992411;28;20030;-87
2023/05/19 09:16:06;;;;;;;8.40;5.38;;;;;;;24.22;42.07;101592.19;5003922;28;20034;-92
2023/05/19 09:18:33;;;;;;;9.48;5.22;;;;;;;24.60;41.47;101614.28;5005179;28;20565;-90
2023/05/19 09:21:01;;;;;;;8.50;5.22;;;;;;;24.58;42.99;101618.88;4961244;28;20519;-90
2023/05/19 09:23:32;;;;;;;8.95;5.38;;;;;;;24.79;42.45;101605.47;4978731;28;20037;-90
2023/05/19 09:26:02;;;;;;;6.45;4.88;;;;;;;24.80;43.19;101612.44;4969838;28;20037;-92
2023/05/19 09:28:30;;;;;;;8.18;5.68;;;;;;;24.95;43.25;101610.16;4987756;28;20046;-92
2023/05/19 09:31:00;;;;;;;8.93;5.43;;;;;;;25.02;41.19;101606.81;5007052;28;20026;-89
2023/05/19 09:33:26;;;;;;;7.05;4.90;;;;;;;25.03;41.66;101610.28;4989504;28;20633;-89
2023/05/19 09:35:55;;;;;;;7.50;5.28;;;;;;;25.10;43.52;101624.63;4973205;28;20531;-95
2023/05/19 09:38:22;;;;;;;11.40;5.32;;;;;;;25.19;40.38;101617.63;4957469;28;20046;-95
2023/05/19 09:40:48;;;;;;;7.05;4.97;;;;;;;25.15;41.23;101617.91;4973155;28;20109;-88
2023/05/19 09:43:15;;;;;;;7.97;5.20;;;;;;;25.36;41.26;101622.97;4949999;28;20820;-90
2023/05/19 09:45:40;;;;;;;6.57;4.35;;;;;;;25.39;39.76;101616.56;4971388;28;20031;-89
2023/05/19 09:48:06;;;;;;;7.28;4.55;;;;;;;25.33;39.79;101594.13;4985085;28;20038;-92
2023/05/19 09:50:32;;;;;;;7.90;4.80;;;;;;;25.66;40.91;101615.69;4990632;28;20022;-93
2023/05/19 09:52:58;;;;;;;6.30;4.85;;;;;;;25.72;38.55;101605.34;4987684;28;20037;-89
2023/05/19 09:55:31;;;;;;;7.30;5.00;;;;;;;25.70;39.29;101607.31;4987123;28;20034;-90
2023/05/19 09:57:57;;;;;;;6.47;4.60;;;;;;;25.78;38.78;101590.69;4988539;28;20041;-92
2023/05/19 10:00:22;;;;;;;7.10;4.55;;;;;;;25.99;40.68;101607.13;4989124;28;20030;-91
2023/05/19 10:02:49;;;;;;;18.02;5.75;;;;;;;25.92;41.62;101579.53;4961228;28;20053;-92
2023/05/19 10:05:18;;;;;;;8.63;4.80;;;;;;;26.08;37.58;101600.06;4986312;28;20038;-88
2023/05/19 10:07:44;;;;;;;5.85;4.32;;;;;;;26.14;38.05;101598.59;5002461;28;20062;-93
2023/05/19 10:10:11;;;;;;;11.73;4.63;;;;;;;26.07;37.80;101602.88;4970728;28;20089;-92
2023/05/19 10:12:38;;;;;;;6.82;4.35;;;;;;;25.66;37.34;101568.84;4973466;28;20030;-92
2023/05/19 10:15:04;;;;;;;7.07;4.50;;;;;;;25.95;38.34;101587.19;4988287;28;20090;-89
2023/05/19 10:17:30;;;;;;;13.02;4.72;;;;;;;26.19;38.72;101591.03;5005980;28;20065;-89
2023/05/19 10:19:56;;;;;;;9.70;4.57;;;;;;;26.35;38.08;101593.84;4976015;28;20026;-92
2023/05/19 10:22:22;;;;;;;6.93;4.53;;;;;;;26.50;37.36;101597.59;4992348;28;20027;-95
2023/05/19 10:24:47;;;;;;;10.07;5.53;;;;;;;26.53;39.46;101584.03;4988332;28;20030;-88
2023/05/19 10:27:13;;;;;;;6.90;4.65;;;;;;;26.52;36.87;101587.66;5007804;28;20038;-92
2023/05/19 10:29:48;;;;;;;6.15;4.35;;;;;;;26.48;36.88;101591.63;4990252;28;20027;-87
2023/05/19 10:32:25;;;;;;;8.43;4.30;;;;;;;26.69;36.44;101588.59;4991251;28;20034;-91
2023/05/19 10:35:23;;;;;;;8.23;5.93;;;;;;;26.66;37.56;101558.91;4990825;28;20029;-93
2023/05/19 10:38:08;;;;;;;7.43;4.95;;;;;;;26.83;36.91;101584.53;4992177;28;20101;-84
2023/05/19 10:40:37;;;;;;;8.30;5.85;;;;;;;26.95;38.08;101582.44;4993098;28;20057;-94
2023/05/19 10:43:28;;;;;;;7.28;4.70;;;;;;;26.91;36.25;101583.75;4993444;28;20030;-88
2023/05/19 10:45:54;;;;;;;6.10;4.70;;;;;;;26.94;36.12;101581.63;5000230;28;20035;-86
2023/05/19 10:48:20;;;;;;;6.78;4.85;;;;;;;26.94;36.44;101576.31;4969481;28;20037;-91
2023/05/19 10:50:46;;;;;;;7.90;4.70;;;;;;;27.12;37.42;101579.72;4972969;28;20512;-92
2023/05/19 10:53:20;;;;;;;8.77;4.57;;;;;;;27.20;35.57;101576.28;4970811;28;20030;-94
2023/05/19 10:55:51;;;;;;;8.70;5.07;;;;;;;27.04;36.22;101561.13;4955289;28;20037;-93
2023/05/19 10:58:44;;;;;;;6.28;4.82;;;;;;;26.85;39.09;101571.94;4972241;28;20100;-93
2023/05/19 11:01:15;;;;;;;6.50;4.82;;;;;;;26.78;38.00;101568.25;4970573;28;20114;-89
2023/05/19 11:03:50;;;;;;;6.25;4.88;;;;;;;27.05;37.10;101560.13;4954532;28;20030;-87
2023/05/19 11:06:37;;;;;;;6.18;4.63;;;;;;;27.34;37.50;101561.56;4967858;28;20057;-88
2023/05/19 11:09:13;;;;;;;5.70;4.68;;;;;;;27.09;36.30;101542.03;4989322;28;20030;-89
2023/05/19 11:11:48;;;;;;;6.30;4.70;;;;;;;27.37;35.88;101567.38;4978025;28;20027;-89
2023/05/19 11:14:17;;;;;;;7.22;4.70;;;;;;;26.96;36.48;101536.31;4970673;28;20120;-88
2023/05/19 11:16:46;;;;;;;6.55;4.70;;;;;;;27.03;36.88;101548.81;4979001;28;20030;-90
2023/05/19 11:19:31;;;;;;;7.20;4.80;;;;;;;27.09;37.22;101553.50;4973178;28;20411;-87
2023/05/19 11:22:06;;;;;;;6.13;4.22;;;;;;;27.26;37.05;101554.38;4974841;28;20027;-85
2023/05/19 11:24:46;;;;;;;7.10;4.85;;;;;;;27.36;35.40;101546.28;4983059;28;20391;-90
2023/05/19 11:27:29;;;;;;;7.20;4.97;;;;;;;27.42;36.12;101533.16;4985278;28;20173;-85